Time;durP1;ratioP1;P1;durP2;ratioP2;P2;SDS_P1;SDS_P2;PMS_P1;PMS_P2;Temp;Humidity;BMP_temperature;BMP_pressure;BME280_temperature;BME280_humidity;BME280_pressure;Samples;Min_cycle;Max_cycle;Signal;HPM_P1;HPM_P2
2024/02/14 00:01:00;;;;;;;11.80;5.68;;;;;;;;;;5019657;28;20215;-77
2024/02/14 00:03:26;;;;;;;9.52;5.80;;;;;;;;;;5024273;28;20259;-75
2024/02/14 00:05:52;;;;;;;10.45;6.25;;;;;;;;;;5038641;28;20181;-75
2024/02/14 00:08:18;;;;;;;10.70;6.13;;;;;;;;;;5029956;28;20211;-76
2024/02/14 00:10:44;;;;;;;10.25;5.68;;;;;;;;;;5027988;28;20213;-77
2024/02/14 00:13:10;;;;;;;14.18;5.95;;;;;;;;;;5010333;28;20523;-76
2024/02/14 00:15:36;;;;;;;7.72;5.95;;;;;;;;;;5026696;28;20182;-76
2024/02/14 00:18:02;;;;;;;7.97;5.75;;;;;;;;;;5018638;28;20693;-76
2024/02/14 00:20:27;;;;;;;7.28;5.90;;;;;;;;;;5040224;28;20227;-76
2024/02/14 00:22:53;;;;;;;13.63;6.00;;;;;;;;;;5026199;28;20218;-76
2024/02/14 00:25:18;;;;;;;10.75;6.35;;;;;;;;;;5006867;28;20190;-75
2024/02/14 00:27:44;;;;;;;10.95;6.45;;;;;;;;;;5034668;28;20193;-76
2024/02/14 00:30:10;;;;;;;7.30;5.80;;;;;;;;;;5013938;28;20491;-76
2024/02/14 00:32:35;;;;;;;11.05;6.60;;;;;;;;;;5022841;28;20228;-76
2024/02/14 00:35:01;;;;;;;10.88;6.35;;;;;;;;;;5037195;28;20208;-75
2024/02/14 00:37:27;;;;;;;10.25;6.10;;;;;;;;;;5021004;28;20193;-75
2024/02/14 00:39:53;;;;;;;8.52;6.60;;;;;;;;;;5022453;28;20252;-75
2024/02/14 00:42:19;;;;;;;9.40;6.53;;;;;;;;;;5024782;28;20201;-74
2024/02/14 00:44:44;;;;;;;12.15;6.38;;;;;;;;;;5027384;28;20185;-75
2024/02/14 00:47:10;;;;;;;9.68;6.00;;;;;;;;;;5006246;28;20205;-75
2024/02/14 00:49:36;;;;;;;11.55;7.03;;;;;;;;;;5037510;28;20197;-74
2024/02/14 00:52:01;;;;;;;8.13;6.57;;;;;;;;;;5041620;28;20230;-74
2024/02/14 00:54:27;;;;;;;10.93;6.22;;;;;;;;;;5031658;28;20708;-75
2024/02/14 00:56:52;;;;;;;9.57;6.60;;;;;;;;;;5043476;28;20188;-75
2024/02/14 00:59:18;;;;;;;9.82;6.40;;;;;;;;;;5032062;28;20186;-74
2024/02/14 01:01:44;;;;;;;9.13;6.25;;;;;;;;;;5033738;28;20219;-75
2024/02/14 01:04:10;;;;;;;8.15;5.50;;;;;;;;;;5036119;28;20229;-75
2024/02/14 01:06:35;;;;;;;8.52;6.03;;;;;;;;;;5031931;28;20615;-76
2024/02/14 01:09:01;;;;;;;9.65;6.20;;;;;;;;;;5028480;28;20634;-76
2024/02/14 01:11:26;;;;;;;8.57;5.75;;;;;;;;;;5031207;28;20687;-75
2024/02/14 01:13:52;;;;;;;9.55;6.35;;;;;;;;;;5028174;28;20629;-76
2024/02/14 01:16:17;;;;;;;9.20;5.75;;;;;;;;;;5034575;28;20522;-76
2024/02/14 01:18:43;;;;;;;8.48;6.22;;;;;;;;;;5031893;28;20792;-77
2024/02/14 01:21:09;;;;;;;8.57;5.78;;;;;;;;;;5038037;28;20600;-77
2024/02/14 01:23:35;;;;;;;10.40;6.03;;;;;;;;;;5030296;28;20245;-76
2024/02/14 01:26:02;;;;;;;8.48;6.15;;;;;;;;;;5030399;28;20622;-77
2024/02/14 01:28:27;;;;;;;6.40;5.05;;;;;;;;;;5029637;28;20665;-78
2024/02/14 01:30:53;;;;;;;7.18;5.43;;;;;;;;;;5026496;28;20205;-78
2024/02/14 01:33:18;;;;;;;9.43;5.68;;;;;;;;;;5041646;28;20182;-76
2024/02/14 01:35:44;;;;;;;6.45;5.35;;;;;;;;;;5019975;28;20198;-76
2024/02/14 01:38:12;;;;;;;7.57;5.53;;;;;;;;;;5030648;28;20568;-76
2024/02/14 01:40:38;;;;;;;10.07;5.57;;;;;;;;;;5033795;28;20365;-76
2024/02/14 01:43:04;;;;;;;7.00;5.53;;;;;;;;;;5030185;28;20807;-77
2024/02/14 01:45:29;;;;;;;6.47;5.43;;;;;;;;;;5033667;28;20247;-76
2024/02/14 01:47:56;;;;;;;9.98;5.70;;;;;;;;;;5012919;28;20254;-77
2024/02/14 01:50:28;;;;;;;7.13;5.47;;;;;;;;;;5042899;28;20251;-75
2024/02/14 01:52:56;;;;;;;10.32;6.25;;;;;;;;;;5011898;28;20174;-76
2024/02/14 01:55:21;;;;;;;7.07;5.55;;;;;;;;;;5033546;28;20197;-77
2024/02/14 01:57:47;;;;;;;8.27;5.70;;;;;;;;;;5037264;28;20567;-76
2024/02/14 02:00:16;;;;;;;7.07;5.82;;;;;;;;;;5016755;28;20186;-77
2024/02/14 02:02:41;;;;;;;6.85;5.28;;;;;;;;;;5025391;28;20218;-78
2024/02/14 02:05:07;;;;;;;8.85;5.55;;;;;;;;;;5005910;28;20194;-77
2024/02/14 02:07:33;;;;;;;8.02;5.68;;;;;;;;;;5038306;28;20637;-77
2024/02/14 02:09:59;;;;;;;7.88;5.80;;;;;;;;;;5024814;28;20186;-77
2024/02/14 02:12:27;;;;;;;6.05;5.45;;;;;;;;;;5003144;28;20178;-76
2024/02/14 02:14:53;;;;;;;7.85;5.65;;;;;;;;;;5030140;28;20281;-76
2024/02/14 02:17:19;;;;;;;8.35;5.78;;;;;;;;;;5019483;28;20271;-76
2024/02/14 02:19:44;;;;;;;9.48;6.35;;;;;;;;;;5027895;28;20264;-77
2024/02/14 02:22:09;;;;;;;12.38;6.43;;;;;;;;;;5029282;28;20627;-75
2024/02/14 02:24:35;;;;;;;9.85;6.00;;;;;;;;;;5036091;28;20190;-76
2024/02/14 02:27:01;;;;;;;8.57;6.45;;;;;;;;;;5030021;28;20194;-76
2024/02/14 02:29:27;;;;;;;8.05;6.22;;;;;;;;;;5029059;28;20655;-76
2024/02/14 02:31:52;;;;;;;9.65;6.30;;;;;;;;;;5041631;28;20198;-77
2024/02/14 02:34:18;;;;;;;7.72;6.50;;;;;;;;;;5031942;28;20209;-75
2024/02/14 02:36:44;;;;;;;7.47;6.00;;;;;;;;;;5030139;28;20252;-76
2024/02/14 02:39:12;;;;;;;8.60;6.80;;;;;;;;;;5015591;28;20182;-76
2024/02/14 02:41:37;;;;;;;8.45;6.90;;;;;;;;;;5028792;28;20588;-75
2024/02/14 02:44:06;;;;;;;8.38;6.22;;;;;;;;;;5032136;28;20203;-77
2024/02/14 02:46:31;;;;;;;9.73;6.85;;;;;;;;;;5017272;28;20244;-77
2024/02/14 02:48:58;;;;;;;7.90;6.50;;;;;;;;;;5024198;28;20225;-75
2024/02/14 02:51:24;;;;;;;7.60;6.28;;;;;;;;;;5030856;28;20190;-76
2024/02/14 02:53:49;;;;;;;8.70;7.28;;;;;;;;;;5021435;28;20187;-76
2024/02/14 02:56:15;;;;;;;8.68;6.93;;;;;;;;;;5024163;28;20268;-75
2024/02/14 02:58:40;;;;;;;13.50;6.78;;;;;;;;;;5014725;28;20187;-75
2024/02/14 03:01:09;;;;;;;9.05;6.80;;;;;;;;;;5047820;28;20197;-76
2024/02/14 03:03:36;;;;;;;10.05;6.72;;;;;;;;;;5033016;28;20216;-75
2024/02/14 03:06:03;;;;;;;9.43;7.72;;;;;;;;;;5026575;28;20189;-75
2024/02/14 03:08:30;;;;;;;11.93;7.80;;;;;;;;;;5020942;28;20186;-77
2024/02/14 03:10:59;;;;;;;9.73;7.53;;;;;;;;;;5031058;28;20225;-76
2024/02/14 03:13:26;;;;;;;11.50;7.78;;;;;;;;;;5022555;28;20272;-77
2024/02/14 03:15:52;;;;;;;8.75;7.32;;;;;;;;;;5025796;28;20185;-75
2024/02/14 03:18:17;;;;;;;10.90;8.00;;;;;;;;;;5035374;28;20232;-75
2024/02/14 03:20:43;;;;;;;11.13;8.25;;;;;;;;;;5021465;28;20203;-75
2024/02/14 03:23:08;;;;;;;9.23;8.02;;;;;;;;;;5030608;28;20198;-76
2024/02/14 03:25:36;;;;;;;11.32;8.25;;;;;;;;;;5032568;28;20201;-75
2024/02/14 03:28:05;;;;;;;12.32;8.73;;;;;;;;;;5015454;28;20190;-75
2024/02/14 03:30:30;;;;;;;13.20;8.80;;;;;;;;;;5036248;28;20197;-74
2024/02/14 03:32:56;;;;;;;13.63;9.18;;;;;;;;;;5043406;28;20190;-75
2024/02/14 03:35:22;;;;;;;12.27;9.18;;;;;;;;;;5027170;28;20193;-75
2024/02/14 03:37:48;;;;;;;12.20;9.32;;;;;;;;;;5029515;28;20746;-77
2024/02/14 03:40:14;;;;;;;12.75;8.90;;;;;;;;;;5023949;28;20544;-75
2024/02/14 03:42:40;;;;;;;11.23;8.48;;;;;;;;;;5022648;28;20215;-75
2024/02/14 03:45:07;;;;;;;11.10;8.73;;;;;;;;;;5026568;28;20530;-76
2024/02/14 03:47:32;;;;;;;11.38;8.45;;;;;;;;;;5019678;28;20197;-76
2024/02/14 03:49:59;;;;;;;11.15;9.05;;;;;;;;;;5032171;28;20186;-75
2024/02/14 03:52:24;;;;;;;13.80;8.82;;;;;;;;;;5032041;28;20200;-75
2024/02/14 03:54:50;;;;;;;9.55;8.55;;;;;;;;;;5043619;28;20181;-74
2024/02/14 03:57:19;;;;;;;12.60;9.40;;;;;;;;;;5027629;28;20572;-74
2024/02/14 03:59:46;;;;;;;11.30;8.38;;;;;;;;;;5006135;28;20199;-74
2024/02/14 04:02:11;;;;;;;9.57;8.57;;;;;;;;;;5026158;28;20231;-76
2024/02/14 04:04:38;;;;;;;10.63;8.70;;;;;;;;;;5043455;28;20185;-73
2024/02/14 04:07:04;;;;;;;9.45;8.18;;;;;;;;;;5034129;28;20260;-75
2024/02/14 04:09:29;;;;;;;10.73;9.30;;;;;;;;;;5026590;28;20572;-76
2024/02/14 04:11:55;;;;;;;14.75;8.60;;;;;;;;;;5020550;28;20179;-74
2024/02/14 04:14:21;;;;;;;10.82;9.35;;;;;;;;;;5020037;28;20630;-74
2024/02/14 04:16:46;;;;;;;10.20;8.55;;;;;;;;;;5013949;28;20251;-76
2024/02/14 04:19:12;;;;;;;14.20;9.90;;;;;;;;;;5026862;28;20232;-74
2024/02/14 04:21:38;;;;;;;9.85;8.82;;;;;;;;;;5024538;28;20208;-76
2024/02/14 04:24:04;;;;;;;9.65;8.65;;;;;;;;;;5029980;28;20213;-77
2024/02/14 04:26:29;;;;;;;10.70;8.63;;;;;;;;;;5020293;28;20699;-77
2024/02/14 04:28:55;;;;;;;11.77;8.85;;;;;;;;;;5026566;28;20193;-76
2024/02/14 04:31:20;;;;;;;9.60;8.45;;;;;;;;;;5038945;28;20200;-73
2024/02/14 04:33:51;;;;;;;9.73;8.75;;;;;;;;;;5048104;28;20190;-74
2024/02/14 04:36:18;;;;;;;9.27;7.70;;;;;;;;;;5029486;28;20209;-74
2024/02/14 04:38:44;;;;;;;8.60;7.70;;;;;;;;;;5042825;28;20641;-77
2024/02/14 04:41:10;;;;;;;9.40;7.88;;;;;;;;;;5038047;28;20303;-75
2024/02/14 04:43:35;;;;;;;9.38;7.68;;;;;;;;;;5043878;28;20241;-75
2024/02/14 04:46:01;;;;;;;9.23;8.10;;;;;;;;;;5038516;28;20654;-74
2024/02/14 04:48:27;;;;;;;8.90;7.65;;;;;;;;;;5035603;28;20194;-74
2024/02/14 04:50:53;;;;;;;10.15;8.43;;;;;;;;;;5050676;28;20190;-75
2024/02/14 04:53:19;;;;;;;9.27;8.20;;;;;;;;;;5035875;28;20637;-76
2024/02/14 04:55:44;;;;;;;11.07;8.60;;;;;;;;;;5025941;28;20216;-75
2024/02/14 04:58:10;;;;;;;10.07;8.30;;;;;;;;;;5018243;28;20187;-76
2024/02/14 05:00:35;;;;;;;11.85;8.32;;;;;;;;;;5039135;28;20178;-75
2024/02/14 05:03:01;;;;;;;11.07;8.73;;;;;;;;;;5031741;28;20217;-76
2024/02/14 05:05:26;;;;;;;12.27;8.40;;;;;;;;;;5023988;28;20193;-76
2024/02/14 05:07:52;;;;;;;11.80;8.55;;;;;;;;;;5025142;28;20289;-75
2024/02/14 05:10:17;;;;;;;13.60;9.25;;;;;;;;;;5011918;28;20178;-77
2024/02/14 05:12:43;;;;;;;12.93;9.48;;;;;;;;;;5030522;28;20185;-75
2024/02/14 05:15:09;;;;;;;13.02;9.80;;;;;;;;;;5046554;28;20218;-75
2024/02/14 05:17:35;;;;;;;13.23;10.25;;;;;;;;;;5042679;28;20234;-75
2024/02/14 05:20:00;;;;;;;16.77;11.18;;;;;;;;;;5028546;28;20214;-75
2024/02/14 05:22:26;;;;;;;16.73;10.52;;;;;;;;;;5023494;28;20233;-75
2024/02/14 05:24:51;;;;;;;14.25;10.70;;;;;;;;;;5027766;28;20195;-75
2024/02/14 05:27:17;;;;;;;19.52;11.80;;;;;;;;;;5037142;28;20196;-76
2024/02/14 05:29:42;;;;;;;16.42;12.18;;;;;;;;;;5032743;28;20193;-74
2024/02/14 05:32:09;;;;;;;16.20;12.07;;;;;;;;;;5040775;28;20178;-75
2024/02/14 05:34:35;;;;;;;17.23;13.05;;;;;;;;;;5013690;28;20190;-76
2024/02/14 05:37:00;;;;;;;19.30;14.02;;;;;;;;;;5032609;28;20185;-76
2024/02/14 05:39:26;;;;;;;21.23;14.45;;;;;;;;;;5020885;28;20202;-76
2024/02/14 05:41:54;;;;;;;20.38;14.23;;;;;;;;;;5012193;28;20602;-75
2024/02/14 05:44:20;;;;;;;22.63;15.43;;;;;;;;;;5035395;28;20220;-76
2024/02/14 05:46:46;;;;;;;19.15;14.68;;;;;;;;;;5029597;28;20193;-75
2024/02/14 05:49:11;;;;;;;21.13;15.57;;;;;;;;;;5032512;28;20652;-76
2024/02/14 05:51:37;;;;;;;24.98;16.27;;;;;;;;;;5021860;28;20495;-75
2024/02/14 05:54:03;;;;;;;23.65;16.38;;;;;;;;;;5030442;28;20776;-75
2024/02/14 05:56:28;;;;;;;25.08;16.73;;;;;;;;;;5018400;28;20274;-76
2024/02/14 05:58:54;;;;;;;23.98;16.63;;;;;;;;;;5031178;28;20194;-77
2024/02/14 06:01:19;;;;;;;26.35;16.75;;;;;;;;;;5032016;28;20187;-75
2024/02/14 06:03:44;;;;;;;27.10;17.48;;;;;;;;;;5025326;28;20233;-75
2024/02/14 06:06:11;;;;;;;28.08;18.75;;;;;;;;;;5025367;28;20233;-75
2024/02/14 06:08:36;;;;;;;28.83;18.27;;;;;;;;;;5021604;28;20190;-75
2024/02/14 06:11:02;;;;;;;29.95;19.35;;;;;;;;;;5022563;28;20197;-76
2024/02/14 06:13:27;;;;;;;25.42;18.92;;;;;;;;;;5031261;28;20273;-76
2024/02/14 06:15:52;;;;;;;27.63;18.73;;;;;;;;;;5029374;28;20201;-76
2024/02/14 06:18:18;;;;;;;29.23;18.83;;;;;;;;;;5015841;28;20260;-76
2024/02/14 06:20:43;;;;;;;32.13;20.88;;;;;;;;;;5043648;28;20548;-76
2024/02/14 06:23:09;;;;;;;31.85;19.35;;;;;;;;;;5025923;28;20212;-74
2024/02/14 06:25:34;;;;;;;31.83;20.25;;;;;;;;;;5025134;28;20189;-75
2024/02/14 06:27:59;;;;;;;32.17;20.17;;;;;;;;;;5037303;28;20654;-75
2024/02/14 06:30:25;;;;;;;30.90;20.00;;;;;;;;;;5032207;28;20190;-75
2024/02/14 06:32:50;;;;;;;33.03;20.58;;;;;;;;;;5018940;28;20182;-75
2024/02/14 06:35:18;;;;;;;27.65;19.15;;;;;;;;;;5021454;28;20252;-76
2024/02/14 06:37:44;;;;;;;32.40;20.05;;;;;;;;;;5025490;28;20720;-76
2024/02/14 06:40:10;;;;;;;32.28;20.55;;;;;;;;;;5027561;28;20205;-76
2024/02/14 06:42:36;;;;;;;32.42;19.83;;;;;;;;;;5027245;28;20681;-76
2024/02/14 06:45:01;;;;;;;30.00;20.23;;;;;;;;;;5045714;28;20190;-75
2024/02/14 06:47:29;;;;;;;32.30;20.55;;;;;;;;;;5006694;28;20194;-75
2024/02/14 06:49:55;;;;;;;32.50;21.50;;;;;;;;;;5036453;28;20174;-75
2024/02/14 06:52:21;;;;;;;31.40;21.02;;;;;;;;;;5026704;28;20198;-75
2024/02/14 06:54:47;;;;;;;29.25;20.98;;;;;;;;;;5032896;28;20193;-76
2024/02/14 06:57:14;;;;;;;31.60;20.88;;;;;;;;;;5041897;28;20217;-76
2024/02/14 06:59:39;;;;;;;27.83;19.98;;;;;;;;;;5014190;28;20193;-75
2024/02/14 07:02:06;;;;;;;32.67;21.25;;;;;;;;;;5034228;28;20216;-75
2024/02/14 07:04:31;;;;;;;32.85;20.67;;;;;;;;;;5030007;28;20274;-75
2024/02/14 07:06:56;;;;;;;33.08;21.70;;;;;;;;;;5025951;28;20293;-75
2024/02/14 07:09:22;;;;;;;31.23;21.27;;;;;;;;;;5033375;28;20191;-76
2024/02/14 07:11:47;;;;;;;32.17;20.77;;;;;;;;;;5021559;28;20190;-75
2024/02/14 07:14:13;;;;;;;33.88;21.88;;;;;;;;;;5035750;28;20221;-76
2024/02/14 07:16:38;;;;;;;35.13;20.80;;;;;;;;;;5031877;28;20190;-76
2024/02/14 07:19:04;;;;;;;29.10;20.33;;;;;;;;;;5038170;28;20717;-75
2024/02/14 07:21:30;;;;;;;33.13;20.80;;;;;;;;;;5039363;28;20702;-75
2024/02/14 07:23:55;;;;;;;30.92;20.42;;;;;;;;;;5016527;28;20296;-75
2024/02/14 07:26:20;;;;;;;29.33;19.85;;;;;;;;;;5036562;28;20551;-75
2024/02/14 07:28:46;;;;;;;33.22;20.38;;;;;;;;;;5028962;28;20183;-76
2024/02/14 07:31:11;;;;;;;27.45;19.00;;;;;;;;;;5031568;28;20189;-75
2024/02/14 07:33:37;;;;;;;29.30;20.08;;;;;;;;;;5030075;28;20189;-76
2024/02/14 07:36:03;;;;;;;25.15;18.60;;;;;;;;;;5033420;28;20189;-76
2024/02/14 07:38:28;;;;;;;24.85;18.38;;;;;;;;;;5030483;28;20212;-75
2024/02/14 07:40:53;;;;;;;22.00;16.40;;;;;;;;;;5024855;28;20660;-76
2024/02/14 07:43:19;;;;;;;22.63;16.85;;;;;;;;;;5032771;28;20525;-76
2024/02/14 07:45:44;;;;;;;22.75;16.20;;;;;;;;;;5032568;28;20194;-75
2024/02/14 07:48:10;;;;;;;25.45;16.33;;;;;;;;;;5027136;28;20378;-75
2024/02/14 07:50:36;;;;;;;22.20;16.10;;;;;;;;;;5037704;28;20782;-74
2024/02/14 07:53:02;;;;;;;20.35;15.30;;;;;;;;;;5011895;28;20190;-75
2024/02/14 07:55:28;;;;;;;20.75;14.90;;;;;;;;;;5031828;28;20247;-75
2024/02/14 07:57:54;;;;;;;19.35;14.10;;;;;;;;;;5028442;28;20185;-75
2024/02/14 08:00:22;;;;;;;19.15;13.45;;;;;;;;;;5040466;28;20213;-75
2024/02/14 08:02:51;;;;;;;18.02;13.48;;;;;;;;;;5021348;28;20224;-75
2024/02/14 08:05:17;;;;;;;17.92;13.52;;;;;;;;;;5027448;28;20245;-76
2024/02/14 08:07:44;;;;;;;15.57;12.95;;;;;;;;;;5025906;28;20191;-75
2024/02/14 08:10:10;;;;;;;15.57;13.25;;;;;;;;;;5033384;28;20198;-76
2024/02/14 08:12:35;;;;;;;15.73;13.23;;;;;;;;;;5036877;28;20540;-76
2024/02/14 08:15:04;;;;;;;16.52;13.30;;;;;;;;;;5030075;28;20192;-75
2024/02/14 08:17:30;;;;;;;15.98;12.25;;;;;;;;;;5032060;28;20230;-76
2024/02/14 08:19:55;;;;;;;17.75;12.48;;;;;;;;;;5032132;28;20288;-76
2024/02/14 08:22:21;;;;;;;16.95;13.13;;;;;;;;;;5020565;28;20290;-76
2024/02/14 08:24:46;;;;;;;17.30;12.30;;;;;;;;;;5040399;28;20190;-75
2024/02/14 08:27:11;;;;;;;17.63;11.85;;;;;;;;;;5029684;28;20216;-76
2024/02/14 08:29:37;;;;;;;18.02;12.57;;;;;;;;;;5036454;28;20514;-76
2024/02/14 08:32:03;;;;;;;17.05;12.35;;;;;;;;;;5043437;28;20707;-76
2024/02/14 08:34:29;;;;;;;14.05;11.60;;;;;;;;;;5035671;28;20186;-76
2024/02/14 08:36:55;;;;;;;14.50;12.00;;;;;;;;;;5028495;28;20194;-76
2024/02/14 08:39:20;;;;;;;16.33;12.32;;;;;;;;;;5037283;28;20214;-76
2024/02/14 08:41:46;;;;;;;16.80;11.75;;;;;;;;;;5026080;28;20618;-77
2024/02/14 08:44:15;;;;;;;13.85;11.55;;;;;;;;;;5034544;28;20202;-76
2024/02/14 08:46:42;;;;;;;17.05;12.23;;;;;;;;;;5034930;28;20197;-76
2024/02/14 08:49:08;;;;;;;18.27;13.25;;;;;;;;;;5026813;28;20194;-75
2024/02/14 08:51:37;;;;;;;14.77;11.60;;;;;;;;;;5026142;28;20553;-76
2024/02/14 08:54:06;;;;;;;14.77;12.23;;;;;;;;;;5020778;28;20182;-75
2024/02/14 08:56:33;;;;;;;16.08;12.40;;;;;;;;;;5010274;28;20185;-75
2024/02/14 08:59:02;;;;;;;21.27;12.68;;;;;;;;;;5029968;28;20625;-75
2024/02/14 09:01:28;;;;;;;20.58;13.57;;;;;;;;;;5041170;28;20185;-75
2024/02/14 09:03:54;;;;;;;17.60;14.10;;;;;;;;;;5027676;28;20218;-74
2024/02/14 09:06:21;;;;;;;18.70;13.95;;;;;;;;;;5036872;28;20189;-75
2024/02/14 09:08:47;;;;;;;20.73;14.02;;;;;;;;;;5029534;28;20197;-75
2024/02/14 09:11:12;;;;;;;21.65;14.38;;;;;;;;;;5032311;28;20186;-74
2024/02/14 09:13:40;;;;;;;18.88;14.20;;;;;;;;;;5036290;28;20535;-75
2024/02/14 09:16:07;;;;;;;19.38;14.82;;;;;;;;;;5035623;28;20193;-75
2024/02/14 09:18:33;;;;;;;19.65;14.77;;;;;;;;;;5036731;28;20707;-75
2024/02/14 09:20:58;;;;;;;18.95;14.27;;;;;;;;;;5035586;28;20190;-75
2024/02/14 09:23:24;;;;;;;22.95;15.45;;;;;;;;;;5032179;28;20210;-75
2024/02/14 09:25:49;;;;;;;18.90;14.70;;;;;;;;;;5020621;28;20178;-75
2024/02/14 09:28:18;;;;;;;22.13;15.55;;;;;;;;;;5036702;28;20182;-76
2024/02/14 09:30:44;;;;;;;19.95;15.18;;;;;;;;;;5026551;28;20184;-75
2024/02/14 09:33:09;;;;;;;24.15;16.50;;;;;;;;;;5036143;28;20265;-75
2024/02/14 09:35:37;;;;;;;21.45;15.65;;;;;;;;;;5037870;28;20689;-75
2024/02/14 09:38:03;;;;;;;22.52;15.45;;;;;;;;;;5031915;28;20194;-76
2024/02/14 09:40:29;;;;;;;20.08;15.65;;;;;;;;;;5030677;28;20701;-76
2024/02/14 09:42:57;;;;;;;23.77;16.30;;;;;;;;;;5034507;28;20202;-75
2024/02/14 09:45:25;;;;;;;24.63;16.65;;;;;;;;;;5029422;28;20605;-76
2024/02/14 09:47:52;;;;;;;21.05;15.15;;;;;;;;;;5035444;28;20185;-75
2024/02/14 09:50:20;;;;;;;19.70;14.95;;;;;;;;;;5036108;28;20238;-76
2024/02/14 09:52:48;;;;;;;21.77;15.35;;;;;;;;;;5029447;28;20181;-75
2024/02/14 09:55:15;;;;;;;23.42;15.20;;;;;;;;;;5040013;28;20186;-75
2024/02/14 09:57:42;;;;;;;21.70;14.35;;;;;;;;;;5029179;28;20193;-75
2024/02/14 10:00:15;;;;;;;22.08;13.82;;;;;;;;;;5033435;28;20185;-75
2024/02/14 10:02:41;;;;;;;18.77;13.95;;;;;;;;;;5032396;28;20194;-75
2024/02/14 10:05:07;;;;;;;19.33;14.05;;;;;;;;;;5057508;28;20217;-75
2024/02/14 10:07:43;;;;;;;17.65;13.23;;;;;;;;;;5046790;28;20650;-76
2024/02/14 10:10:09;;;;;;;19.77;13.27;;;;;;;;;;5035341;28;20231;-76
2024/02/14 10:12:35;;;;;;;16.85;12.88;;;;;;;;;;5040378;28;20189;-75
2024/02/14 10:15:01;;;;;;;19.70;11.90;;;;;;;;;;5031309;28;20194;-75
2024/02/14 10:17:27;;;;;;;14.68;11.63;;;;;;;;;;5016704;28;20226;-76
2024/02/14 10:19:57;;;;;;;19.50;11.48;;;;;;;;;;5025938;28;20264;-75
2024/02/14 10:22:23;;;;;;;17.33;12.07;;;;;;;;;;5031902;28;20186;-76
2024/02/14 10:24:48;;;;;;;16.42;11.80;;;;;;;;;;5027531;28;20205;-76
2024/02/14 10:27:15;;;;;;;14.63;11.45;;;;;;;;;;5029772;28;20248;-76
2024/02/14 10:29:40;;;;;;;15.88;11.93;;;;;;;;;;5030745;28;20200;-76
2024/02/14 10:32:06;;;;;;;15.63;11.98;;;;;;;;;;5025081;28;20182;-76
2024/02/14 10:34:33;;;;;;;15.77;11.77;;;;;;;;;;4999199;28;20198;-76
2024/02/14 10:37:00;;;;;;;13.40;10.82;;;;;;;;;;5036042;28;20628;-77
2024/02/14 10:39:26;;;;;;;15.60;11.02;;;;;;;;;;5028189;28;20190;-76
2024/02/14 10:41:52;;;;;;;13.52;10.18;;;;;;;;;;5028010;28;20196;-75
2024/02/14 10:44:18;;;;;;;12.00;9.40;;;;;;;;;;5024669;28;20213;-75
2024/02/14 10:46:46;;;;;;;12.43;9.40;;;;;;;;;;5028228;28;20580;-74
2024/02/14 10:49:15;;;;;;;10.88;8.52;;;;;;;;;;5032988;28;20624;-77
2024/02/14 10:51:43;;;;;;;12.20;9.65;;;;;;;;;;5027137;28;20215;-76
2024/02/14 10:54:12;;;;;;;9.38;8.23;;;;;;;;;;5035115;28;20185;-76
2024/02/14 10:56:40;;;;;;;13.13;8.27;;;;;;;;;;5010161;28;20293;-76
2024/02/14 10:59:10;;;;;;;12.75;8.13;;;;;;;;;;5015829;28;20530;-77
2024/02/14 11:01:36;;;;;;;9.07;7.82;;;;;;;;;;5035456;28;20196;-76
2024/02/14 11:04:04;;;;;;;10.60;8.07;;;;;;;;;;5033705;28;20309;-76
2024/02/14 11:06:30;;;;;;;9.30;8.10;;;;;;;;;;5027010;28;20533;-76
2024/02/14 11:08:57;;;;;;;11.13;8.43;;;;;;;;;;5033809;28;20483;-76
2024/02/14 11:11:23;;;;;;;11.40;9.02;;;;;;;;;;5027284;28;20553;-76
2024/02/14 11:13:53;;;;;;;11.32;9.02;;;;;;;;;;5031788;28;20177;-75
2024/02/14 11:16:25;;;;;;;11.80;9.82;;;;;;;;;;5010259;28;20232;-76
2024/02/14 11:18:50;;;;;;;13.85;10.45;;;;;;;;;;5021284;28;20705;-76
2024/02/14 11:21:17;;;;;;;13.88;9.65;;;;;;;;;;5032853;28;20272;-76
2024/02/14 11:23:53;;;;;;;13.02;9.95;;;;;;;;;;5029606;28;20201;-76
2024/02/14 11:26:23;;;;;;;16.20;9.75;;;;;;;;;;5039723;28;20200;-76
2024/02/14 11:28:49;;;;;;;11.77;9.93;;;;;;;;;;5035453;28;20232;-76
2024/02/14 11:31:17;;;;;;;15.73;10.45;;;;;;;;;;5028128;28;20182;-75
2024/02/14 11:33:45;;;;;;;16.77;11.48;;;;;;;;;;5042509;28;20251;-76
2024/02/14 11:36:11;;;;;;;12.15;10.05;;;;;;;;;;5029947;28;20600;-76
2024/02/14 11:38:39;;;;;;;12.50;10.15;;;;;;;;;;5033100;28;20185;-76
2024/02/14 11:41:05;;;;;;;19.02;11.32;;;;;;;;;;5047535;28;20201;-76
2024/02/14 11:43:31;;;;;;;17.15;12.07;;;;;;;;;;5027554;28;20251;-76
2024/02/14 11:45:56;;;;;;;16.75;12.75;;;;;;;;;;5031152;28;20193;-76
2024/02/14 11:48:23;;;;;;;16.77;12.20;;;;;;;;;;5029071;28;20559;-76
2024/02/14 11:50:48;;;;;;;17.52;13.90;;;;;;;;;;5045011;28;20279;-77
2024/02/14 11:53:18;;;;;;;19.13;12.82;;;;;;;;;;5014710;28;20201;-76
2024/02/14 11:55:46;;;;;;;17.98;13.43;;;;;;;;;;5034741;28;20198;-77
2024/02/14 11:58:13;;;;;;;15.73;13.23;;;;;;;;;;5030078;28;20204;-76
2024/02/14 12:00:44;;;;;;;21.08;13.57;;;;;;;;;;5041646;28;20538;-76
2024/02/14 12:03:13;;;;;;;18.35;13.23;;;;;;;;;;5032341;28;20299;-76
2024/02/14 12:05:39;;;;;;;20.05;12.70;;;;;;;;;;5031008;28;20193;-77
2024/02/14 12:08:06;;;;;;;21.85;13.35;;;;;;;;;;5038141;28;20190;-77
2024/02/14 12:10:32;;;;;;;18.10;13.50;;;;;;;;;;5031818;28;20193;-76
2024/02/14 12:12:59;;;;;;;19.75;13.77;;;;;;;;;;5019576;28;20197;-76
2024/02/14 12:15:26;;;;;;;21.25;13.95;;;;;;;;;;5029008;28;20217;-76
2024/02/14 12:17:55;;;;;;;21.20;12.77;;;;;;;;;;5027217;28;20230;-76
2024/02/14 12:20:23;;;;;;;20.42;14.60;;;;;;;;;;5009756;28;20182;-76
2024/02/14 12:22:52;;;;;;;18.75;13.93;;;;;;;;;;5027136;28;20564;-76
2024/02/14 12:25:17;;;;;;;19.27;14.07;;;;;;;;;;5024133;28;20177;-76
2024/02/14 12:27:50;;;;;;;20.83;14.23;;;;;;;;;;5015721;28;20714;-76
2024/02/14 12:30:17;;;;;;;19.17;13.60;;;;;;;;;;5028570;28;20288;-76
2024/02/14 12:32:43;;;;;;;18.00;13.63;;;;;;;;;;5029345;28;20186;-76
2024/02/14 12:35:09;;;;;;;18.45;13.40;;;;;;;;;;5029943;28;20186;-76
2024/02/14 12:37:34;;;;;;;18.48;13.60;;;;;;;;;;5031408;28;20209;-76
2024/02/14 12:40:00;;;;;;;18.58;13.95;;;;;;;;;;5025614;28;20189;-76
2024/02/14 12:42:27;;;;;;;19.00;12.88;;;;;;;;;;5021017;28;20198;-77
2024/02/14 12:44:54;;;;;;;22.15;14.82;;;;;;;;;;5022628;28;20202;-76
2024/02/14 12:47:21;;;;;;;15.88;13.38;;;;;;;;;;5027984;28;20261;-76
2024/02/14 12:49:48;;;;;;;23.50;14.13;;;;;;;;;;5026369;28;20265;-76
2024/02/14 12:52:14;;;;;;;20.38;13.98;;;;;;;;;;5030098;28;20202;-76
2024/02/14 12:54:39;;;;;;;16.05;12.95;;;;;;;;;;5024427;28;20190;-75
2024/02/14 12:57:05;;;;;;;16.02;12.07;;;;;;;;;;5028477;28;20190;-78
2024/02/14 12:59:31;;;;;;;15.32;12.20;;;;;;;;;;5011684;28;20182;-76
2024/02/14 13:01:56;;;;;;;18.50;12.00;;;;;;;;;;5030303;28;20185;-76
2024/02/14 13:04:22;;;;;;;19.77;12.85;;;;;;;;;;5010195;28;20576;-76
2024/02/14 13:06:47;;;;;;;15.75;12.32;;;;;;;;;;5013292;28;20212;-75
2024/02/14 13:09:14;;;;;;;13.65;10.75;;;;;;;;;;5028276;28;20569;-77
2024/02/14 13:11:41;;;;;;;16.38;11.35;;;;;;;;;;5030375;28;20240;-76
2024/02/14 13:14:06;;;;;;;14.65;11.20;;;;;;;;;;5037690;28;20654;-75
2024/02/14 13:16:32;;;;;;;15.02;10.55;;;;;;;;;;5034699;28;20182;-76
2024/02/14 13:18:57;;;;;;;16.73;10.45;;;;;;;;;;5038126;28;20264;-76
2024/02/14 13:21:22;;;;;;;14.32;10.18;;;;;;;;;;5010650;28;20221;-76
2024/02/14 13:23:48;;;;;;;15.70;11.10;;;;;;;;;;5033403;28;20212;-76
2024/02/14 13:26:13;;;;;;;13.68;10.27;;;;;;;;;;5021087;28;20190;-76
2024/02/14 13:28:40;;;;;;;14.02;10.60;;;;;;;;;;5038595;28;20188;-75
2024/02/14 13:31:06;;;;;;;12.60;9.50;;;;;;;;;;5020988;28;20656;-75
2024/02/14 13:33:31;;;;;;;13.50;9.63;;;;;;;;;;5036660;28;20299;-76
2024/02/14 13:35:57;;;;;;;13.27;10.15;;;;;;;;;;5039723;28;20205;-75
2024/02/14 13:38:22;;;;;;;13.95;9.48;;;;;;;;;;5036787;28;20213;-74
2024/02/14 13:40:48;;;;;;;11.93;9.38;;;;;;;;;;5038707;28;20243;-75
2024/02/14 13:43:16;;;;;;;10.93;8.77;;;;;;;;;;5029191;28;20210;-74
2024/02/14 13:45:44;;;;;;;15.43;9.77;;;;;;;;;;5040661;28;20186;-75
2024/02/14 13:48:10;;;;;;;11.15;8.73;;;;;;;;;;5033800;28;20209;-75
2024/02/14 13:50:36;;;;;;;10.27;8.70;;;;;;;;;;5028498;28;20775;-76
2024/02/14 13:53:01;;;;;;;9.85;8.63;;;;;;;;;;5029061;28;20190;-77
2024/02/14 13:55:27;;;;;;;11.82;8.27;;;;;;;;;;5032189;28;20198;-76
2024/02/14 13:57:52;;;;;;;11.05;7.90;;;;;;;;;;5029442;28;20182;-76
2024/02/14 14:00:18;;;;;;;10.00;7.45;;;;;;;;;;5028936;28;20212;-76
2024/02/14 14:02:43;;;;;;;10.30;7.70;;;;;;;;;;5029110;28;20182;-76
2024/02/14 14:05:12;;;;;;;8.48;7.22;;;;;;;;;;5028149;28;20558;-77
2024/02/14 14:07:39;;;;;;;8.75;6.75;;;;;;;;;;5027586;28;20198;-75
2024/02/14 14:10:13;;;;;;;8.20;7.20;;;;;;;;;;5030143;28;20190;-75
2024/02/14 14:12:39;;;;;;;7.78;6.38;;;;;;;;;;5027638;28;20190;-75
2024/02/14 14:15:05;;;;;;;7.07;6.28;;;;;;;;;;5008589;28;20183;-76
2024/02/14 14:17:30;;;;;;;6.93;6.18;;;;;;;;;;5015220;28;20226;-75
2024/02/14 14:19:56;;;;;;;6.45;5.55;;;;;;;;;;5033236;28;20285;-76